createdAt,value
2022-10-05T00:01:25.962Z,101241.19
2022-10-05T00:04:15.230Z,101231.66
2022-10-05T00:07:01.427Z,101232.50
2022-10-05T00:09:42.208Z,101223.00
2022-10-05T00:12:33.682Z,101231.13
2022-10-05T00:15:14.355Z,101223.97
2022-10-05T00:17:54.821Z,101227.47
2022-10-05T00:20:34.683Z,101220.19
2022-10-05T00:23:19.441Z,101233.34
2022-10-05T00:25:58.289Z,101228.88
2022-10-05T00:28:38.902Z,101228.56
2022-10-05T00:31:22.256Z,101234.72
2022-10-05T00:34:03.286Z,101231.94
2022-10-05T00:37:26.731Z,101226.22
2022-10-05T00:40:17.694Z,101234.88
2022-10-05T00:43:04.819Z,101235.03
2022-10-05T00:45:47.442Z,101235.47
2022-10-05T00:48:32.528Z,101224.69
2022-10-05T00:51:25.120Z,101237.53
2022-10-05T00:54:26.281Z,101230.25
2022-10-05T00:57:25.863Z,101236.16
2022-10-05T01:00:08.736Z,101239.66
2022-10-05T01:02:53.422Z,101236.00
2022-10-05T01:05:42.084Z,101238.22
2022-10-05T01:08:29.653Z,101240.88
2022-10-05T01:11:16.463Z,101232.47
2022-10-05T01:14:04.778Z,101224.03
2022-10-05T01:16:52.529Z,101223.34
2022-10-05T01:19:45.463Z,101229.09
2022-10-05T01:22:49.885Z,101211.84
2022-10-05T01:25:39.606Z,101222.06
2022-10-05T01:28:24.382Z,101226.25
2022-10-05T01:31:11.843Z,101219.94
2022-10-05T01:33:57.507Z,101211.94
2022-10-05T01:36:41.719Z,101209.97
2022-10-05T01:39:26.602Z,101213.47
2022-10-05T01:42:14.458Z,101199.75
2022-10-05T01:44:59.481Z,101191.47
2022-10-05T01:47:44.529Z,101200.13
2022-10-05T01:50:31.804Z,101195.66
2022-10-05T01:53:31.361Z,101201.41
2022-10-05T01:56:19.989Z,101193.41
2022-10-05T01:59:16.010Z,101191.44
2022-10-05T02:02:00.154Z,101192.56
2022-10-05T02:05:01.625Z,101188.34
2022-10-05T02:07:45.557Z,101181.09
2022-10-05T02:10:30.380Z,101176.44
2022-10-05T02:13:15.446Z,101178.13
2022-10-05T02:15:59.921Z,101166.47
2022-10-05T02:18:43.098Z,101173.22
2022-10-05T02:21:24.561Z,101166.59
2022-10-05T02:24:23.109Z,101170.94
2022-10-05T02:27:07.286Z,101164.78
2022-10-05T02:29:48.242Z,101162.63
2022-10-05T02:32:42.146Z,101164.31
2022-10-05T02:35:25.016Z,101170.31
2022-10-05T02:38:11.367Z,101159.38
2022-10-05T02:40:58.641Z,101168.06
2022-10-05T02:43:42.879Z,101165.56
2022-10-05T02:46:31.713Z,101155.44
2022-10-05T02:49:20.896Z,101157.94
2022-10-05T02:52:06.310Z,101151.47
2022-10-05T02:54:51.065Z,101151.47
2022-10-05T02:57:32.061Z,101148.97
2022-10-05T03:00:14.977Z,101151.78
2022-10-05T03:03:01.646Z,101146.16
2022-10-05T03:05:45.786Z,101148.97
2022-10-05T03:09:07.672Z,101153.63
2022-10-05T03:11:57.102Z,101158.09
2022-10-05T03:14:57.415Z,101159.78
2022-10-05T03:17:46.227Z,101148.44
2022-10-05T03:20:33.405Z,101151.47
2022-10-05T03:23:55.946Z,101145.63
2022-10-05T03:26:46.563Z,101138.47
2022-10-05T03:29:31.566Z,101124.47
2022-10-05T03:32:18.828Z,101124.47
2022-10-05T03:35:48.840Z,101109.03
2022-10-05T03:38:36.792Z,101116.84
2022-10-05T03:41:25.321Z,101114.50
2022-10-05T03:44:18.591Z,101105.00
2022-10-05T03:47:15.788Z,101111.16
2022-10-05T03:50:12.980Z,101113.13
2022-10-05T03:52:57.817Z,101109.75
2022-10-05T03:55:42.172Z,101105.16
2022-10-05T03:58:26.884Z,101086.50
2022-10-05T04:01:11.345Z,101074.03
2022-10-05T04:03:51.281Z,101076.13
2022-10-05T04:06:34.458Z,101068.97
2022-10-05T04:09:29.087Z,101068.81
2022-10-05T04:12:15.175Z,101079.19
2022-10-05T04:15:20.622Z,101085.78
2022-10-05T04:18:03.999Z,101073.88
2022-10-05T04:20:46.113Z,101066.03
2022-10-05T04:23:40.030Z,101064.19
2022-10-05T04:26:33.576Z,101059.56
2022-10-05T04:29:18.232Z,101057.72
2022-10-05T04:32:20.766Z,101048.59
2022-10-05T04:35:14.131Z,101054.75
2022-10-05T04:38:00.503Z,101056.75
2022-10-05T04:40:52.280Z,101067.91
2022-10-05T04:43:37.877Z,101058.25
2022-10-05T04:46:28.096Z,101058.72
2022-10-05T04:49:28.921Z,101054.22
2022-10-05T04:52:14.521Z,101057.63
2022-10-05T04:55:05.351Z,101061.81
2022-10-05T04:57:50.818Z,101065.19
2022-10-05T05:00:41.025Z,101065.19
2022-10-05T05:03:39.307Z,101049.75
2022-10-05T05:06:28.096Z,101065.19
2022-10-05T05:09:24.437Z,101062.97
2022-10-05T05:12:21.640Z,101062.66
2022-10-05T05:15:17.136Z,101049.28
2022-10-05T05:18:41.589Z,101067.75
2022-10-05T05:21:32.987Z,101068.06
2022-10-05T05:24:21.574Z,101065.88
2022-10-05T05:27:19.635Z,101065.03
2022-10-05T05:30:21.313Z,101068.38
2022-10-05T05:33:11.051Z,101066.03
2022-10-05T05:36:11.132Z,101059.97
2022-10-05T05:39:00.790Z,101071.47
2022-10-05T05:41:47.695Z,101067.28
2022-10-05T05:44:31.768Z,101056.22
2022-10-05T05:47:18.478Z,101053.56
2022-10-05T05:50:11.772Z,101053.56
2022-10-05T05:53:16.772Z,101061.69
2022-10-05T05:56:00.573Z,101059.19
2022-10-05T05:58:46.801Z,101057.00
2022-10-05T06:01:49.916Z,101058.34
2022-10-05T06:04:35.238Z,101051.88
2022-10-05T06:07:17.716Z,101050.91
2022-10-05T06:10:23.346Z,101046.28
2022-10-05T06:13:17.191Z,101053.28
2022-10-05T06:16:00.943Z,101053.56
2022-10-05T06:18:44.857Z,101053.88
2022-10-05T06:21:30.015Z,101055.94
2022-10-05T06:24:25.949Z,101055.78
2022-10-05T06:27:25.080Z,101055.38
2022-10-05T06:30:09.081Z,101061.22
2022-10-05T06:33:05.484Z,101059.56
2022-10-05T06:35:54.148Z,101052.25
2022-10-05T06:38:55.916Z,101060.16
2022-10-05T06:41:47.771Z,101048.91
2022-10-05T06:44:33.840Z,101055.44
2022-10-05T06:48:00.400Z,101062.53
2022-10-05T06:51:18.639Z,101066.53
2022-10-05T06:54:27.470Z,101065.38
2022-10-05T06:57:13.124Z,101060.88
2022-10-05T07:00:00.240Z,101065.44
2022-10-05T07:02:56.396Z,101068.69
2022-10-05T07:05:47.897Z,101073.47
2022-10-05T07:08:36.443Z,101085.06
2022-10-05T07:11:28.796Z,101080.59
2022-10-05T07:14:20.802Z,101087.91
2022-10-05T07:17:18.552Z,101087.59
2022-10-05T07:20:17.097Z,101086.16
2022-10-05T07:23:12.714Z,101083.72
2022-10-05T07:26:00.705Z,101085.06
2022-10-05T07:28:47.038Z,101091.22
2022-10-05T07:31:32.721Z,101088.06
2022-10-05T07:34:18.650Z,101089.13
2022-10-05T07:37:20.572Z,101082.31
2022-10-05T07:40:07.733Z,101077.19
2022-10-05T07:43:00.804Z,101081.88
2022-10-05T07:45:47.243Z,101080.53
2022-10-05T07:48:43.284Z,101087.72
2022-10-05T07:51:30.436Z,101084.22
2022-10-05T07:55:16.987Z,101094.59
2022-10-05T07:58:04.171Z,101086.28
2022-10-05T08:01:05.587Z,101090.16
2022-10-05T08:04:03.278Z,101080.47
2022-10-05T08:06:57.797Z,101091.34
2022-10-05T08:09:42.241Z,101087.84
2022-10-05T08:12:32.084Z,101095.88
2022-10-05T08:15:15.769Z,101085.53
2022-10-05T08:18:00.360Z,101093.75
2022-10-05T08:20:45.596Z,101090.53
2022-10-05T08:23:35.898Z,101098.06
2022-10-05T08:26:42.985Z,101098.38
2022-10-05T08:29:30.539Z,101098.34
2022-10-05T08:32:15.705Z,101098.97
2022-10-05T08:35:01.507Z,101103.91
2022-10-05T08:37:43.594Z,101100.56
2022-10-05T08:41:07.816Z,101110.72
2022-10-05T08:44:27.100Z,101113.03
2022-10-05T08:47:16.809Z,101120.25
2022-10-05T08:50:34.979Z,101117.41
2022-10-05T08:53:26.026Z,101126.19
2022-10-05T08:56:28.910Z,101122.59
2022-10-05T08:59:42.383Z,101134.13
2022-10-05T09:02:29.955Z,101136.63
2022-10-05T09:05:19.919Z,101133.47
2022-10-05T09:08:36.498Z,101134.78
2022-10-05T09:11:21.405Z,101136.41
2022-10-05T09:14:36.850Z,101139.75
2022-10-05T09:17:50.016Z,101136.81
2022-10-05T09:20:38.772Z,101139.50
2022-10-05T09:23:32.728Z,101144.69
2022-10-05T09:26:42.819Z,101138.00
2022-10-05T09:30:12.897Z,101137.34
2022-10-05T09:33:25.593Z,101143.56
2022-10-05T09:36:18.847Z,101141.88
2022-10-05T09:39:54.256Z,101142.00
2022-10-05T09:42:49.476Z,101147.38
2022-10-05T09:45:57.593Z,101150.38
2022-10-05T09:49:01.563Z,101159.03
2022-10-05T09:52:00.131Z,101145.47
2022-10-05T09:55:08.860Z,101142.06
2022-10-05T09:58:22.459Z,101130.34
2022-10-05T10:01:32.785Z,101138.09
2022-10-05T10:04:35.757Z,101134.91
2022-10-05T10:07:57.286Z,101149.00
2022-10-05T10:10:53.713Z,101143.66
2022-10-05T10:14:00.011Z,101143.34
2022-10-05T10:16:53.615Z,101129.13
2022-10-05T10:19:58.948Z,101139.50
2022-10-05T10:23:04.904Z,101140.72
2022-10-05T10:26:18.288Z,101145.56
2022-10-05T10:33:19.058Z,101134.69
2022-10-05T10:36:06.048Z,101127.06
2022-10-05T10:38:55.459Z,101116.00
2022-10-05T10:42:01.688Z,101115.44
2022-10-05T10:45:25.315Z,101104.94
2022-10-05T10:48:11.816Z,101102.56
2022-10-05T10:51:05.259Z,101095.91
2022-10-05T10:54:42.582Z,101090.38
2022-10-05T10:57:29.447Z,101089.84
2022-10-05T11:00:31.455Z,101078.13
2022-10-05T11:03:39.332Z,101080.97
2022-10-05T11:06:42.561Z,101068.41
2022-10-05T11:09:51.242Z,101078.25
2022-10-05T11:13:08.141Z,101083.38
2022-10-05T11:16:19.903Z,101070.88
2022-10-05T11:19:21.722Z,101066.63
2022-10-05T11:22:19.153Z,101069.72
2022-10-05T11:25:14.191Z,101062.94
2022-10-05T11:28:20.920Z,101065.91
2022-10-05T11:31:31.028Z,101060.63
2022-10-05T11:34:37.914Z,101066.66
2022-10-05T11:37:51.135Z,101041.56
2022-10-05T11:41:02.237Z,101044.50
2022-10-05T11:44:19.657Z,101038.88
2022-10-05T11:47:08.427Z,101039.31
2022-10-05T11:49:53.968Z,101044.94
2022-10-05T11:52:40.324Z,101043.69
2022-10-05T11:55:43.958Z,101028.72
2022-10-05T11:58:49.455Z,101031.19
2022-10-05T12:01:34.882Z,101032.81
2022-10-05T12:04:37.740Z,101030.66
2022-10-05T12:07:22.229Z,101016.06
2022-10-05T12:10:23.250Z,101021.88
2022-10-05T12:13:22.075Z,101012.28
2022-10-05T12:16:07.113Z,101008.00
2022-10-05T12:19:01.833Z,101002.22
2022-10-05T12:22:29.291Z,101013.69
2022-10-05T12:25:21.516Z,100998.41
2022-10-05T12:28:05.236Z,100999.44
2022-10-05T12:31:01.062Z,100996.28
2022-10-05T12:35:48.420Z,100989.13
2022-10-05T12:38:54.673Z,100975.88
2022-10-05T12:41:49.961Z,100981.19
2022-10-05T12:45:08.214Z,100979.28
2022-10-05T12:48:09.451Z,100977.19
2022-10-05T12:50:51.135Z,100965.63
2022-10-05T12:53:43.321Z,100967.19
2022-10-05T12:56:48.668Z,100969.75
2022-10-05T12:59:41.215Z,100967.72
2022-10-05T13:02:31.608Z,100964.03
2022-10-05T13:05:26.478Z,100962.94
2022-10-05T13:08:14.726Z,100969.78
2022-10-05T13:11:02.083Z,100957.03
2022-10-05T13:14:09.466Z,100964.75
2022-10-05T13:16:55.273Z,100954.72
2022-10-05T13:19:40.671Z,100953.84
2022-10-05T13:22:44.050Z,100936.81
2022-10-05T13:25:28.569Z,100928.53
2022-10-05T13:28:16.585Z,100937.75
2022-10-05T13:31:05.352Z,100938.22
2022-10-05T13:34:02.207Z,100929.06
2022-10-05T13:36:50.187Z,100918.72
2022-10-05T13:39:42.156Z,100915.63
2022-10-05T13:42:29.852Z,100915.47
2022-10-05T13:45:15.970Z,100919.19
2022-10-05T13:48:11.597Z,100914.59
2022-10-05T13:51:01.821Z,100921.81
2022-10-05T13:53:49.750Z,100908.69
2022-10-05T13:56:31.950Z,100902.03
2022-10-05T13:59:18.529Z,100906.19
2022-10-05T14:02:00.539Z,100895.41
2022-10-05T14:05:23.823Z,100890.16
2022-10-05T14:12:27.406Z,100883.63
2022-10-05T14:15:39.761Z,100888.50
2022-10-05T14:18:31.851Z,100882.28
2022-10-05T14:21:56.244Z,100885.53
2022-10-05T14:25:03.721Z,100878.06
2022-10-05T14:28:05.864Z,100876.75
2022-10-05T14:31:14.980Z,100879.22
2022-10-05T14:33:54.953Z,100874.03
2022-10-05T14:36:40.051Z,100865.97
2022-10-05T14:39:35.906Z,100875.31
2022-10-05T14:42:18.032Z,100865.97
2022-10-05T14:45:14.294Z,100863.69
2022-10-05T14:47:56.124Z,100870.09
2022-10-05T14:50:54.855Z,100863.25
2022-10-05T14:53:40.648Z,100862.63
2022-10-05T14:56:40.877Z,100854.72
2022-10-05T14:59:43.393Z,100859.47
2022-10-05T15:02:38.526Z,100846.81
2022-10-05T15:05:24.663Z,100855.28
2022-10-05T15:08:14.516Z,100850.50
2022-10-05T15:11:00.124Z,100833.47
2022-10-05T15:13:42.495Z,100838.19
2022-10-05T15:16:25.587Z,100820.78
2022-10-05T15:19:16.847Z,100830.66
2022-10-05T15:22:07.686Z,100833.69
2022-10-05T15:25:02.607Z,100828.09
2022-10-05T15:27:56.655Z,100810.88
2022-10-05T15:30:37.831Z,100811.06
2022-10-05T15:33:23.112Z,100810.81
2022-10-05T15:36:11.055Z,100801.31
2022-10-05T15:39:02.852Z,100804.56
2022-10-05T15:41:55.174Z,100797.06
2022-10-05T15:44:46.547Z,100798.94
2022-10-05T15:47:34.676Z,100794.16
2022-10-05T15:50:29.613Z,100797.03
2022-10-05T15:53:19.696Z,100782.34
2022-10-05T15:56:01.079Z,100775.84
2022-10-05T15:58:53.806Z,100775.22
2022-10-05T16:01:47.062Z,100769.16
2022-10-05T16:04:41.731Z,100765.78
2022-10-05T16:07:57.556Z,100755.22
2022-10-05T16:10:40.709Z,100744.63
2022-10-05T16:13:26.964Z,100748.06
2022-10-05T16:16:20.647Z,100741.19
2022-10-05T16:19:04.281Z,100740.09
2022-10-05T16:21:51.462Z,100738.31
2022-10-05T16:24:50.025Z,100735.75
2022-10-05T16:28:05.218Z,100724.31
2022-10-05T16:30:55.122Z,100722.59
2022-10-05T16:33:47.066Z,100731.94
2022-10-05T16:36:37.621Z,100729.66
2022-10-05T16:39:22.488Z,100727.53
2022-10-05T16:42:06.251Z,100727.47
2022-10-05T16:44:50.727Z,100715.34
2022-10-05T16:47:37.165Z,100719.50
2022-10-05T16:50:23.675Z,100722.94
2022-10-05T16:53:06.637Z,100724.03
2022-10-05T16:55:49.122Z,100727.31
2022-10-05T16:58:58.628Z,100739.41
2022-10-05T17:01:49.275Z,100736.44
2022-10-05T17:04:41.263Z,100744.56
2022-10-05T17:07:52.959Z,100739.91
2022-10-05T17:11:07.341Z,100737.97
2022-10-05T17:14:04.775Z,100760.47
2022-10-05T17:16:55.342Z,100769.16
2022-10-05T17:19:55.913Z,100767.84
2022-10-05T17:22:40.393Z,100773.19
2022-10-05T17:25:24.237Z,100774.50
2022-10-05T17:28:23.479Z,100783.03
2022-10-05T17:31:14.772Z,100784.06
2022-10-05T17:34:29.077Z,100785.38
2022-10-05T17:37:35.417Z,100797.94
2022-10-05T17:40:35.223Z,100797.09
2022-10-05T17:43:26.140Z,100797.63
2022-10-05T17:46:06.776Z,100811.34
2022-10-05T17:49:28.422Z,100808.69
2022-10-05T17:52:43.798Z,100810.34
2022-10-05T17:55:42.745Z,100814.69
2022-10-05T17:59:03.676Z,100813.16
2022-10-05T18:01:42.829Z,100823.19
2022-10-05T18:04:39.874Z,100829.50
2022-10-05T18:07:26.462Z,100837.97
2022-10-05T18:10:23.226Z,100841.75
2022-10-05T18:13:22.189Z,100851.63
2022-10-05T18:16:05.027Z,100857.47
2022-10-05T18:19:00.754Z,100861.44
2022-10-05T18:22:01.215Z,100865.31
2022-10-05T18:24:48.946Z,100869.00
2022-10-05T18:28:00.673Z,100877.69
2022-10-05T18:30:46.030Z,100878.03
2022-10-05T18:34:08.812Z,100881.75
2022-10-05T18:36:58.239Z,100891.25
2022-10-05T18:39:53.699Z,100891.78
2022-10-05T18:42:40.036Z,100887.63
2022-10-05T18:45:25.546Z,100904.72
2022-10-05T18:48:16.865Z,100904.22
2022-10-05T18:51:04.833Z,100908.22
2022-10-05T18:53:57.520Z,100905.03
2022-10-05T18:56:42.379Z,100922.56
2022-10-05T18:59:33.053Z,100920.53
2022-10-05T19:02:20.854Z,100916.91
2022-10-05T19:05:46.311Z,100916.25
2022-10-05T19:08:29.849Z,100920.22
2022-10-05T19:11:19.166Z,100923.84
2022-10-05T19:14:07.366Z,100927.69
2022-10-05T19:16:55.809Z,100922.63
2022-10-05T19:19:49.357Z,100919.84
2022-10-05T19:22:40.194Z,100921.50
2022-10-05T19:25:37.944Z,100924.75
2022-10-05T19:28:35.565Z,100930.78
2022-10-05T19:31:27.519Z,100933.94
2022-10-05T19:34:20.651Z,100934.78
2022-10-05T19:37:05.546Z,100937.31
2022-10-05T19:39:49.168Z,100936.41
2022-10-05T19:42:46.996Z,100946.72
2022-10-05T19:45:29.344Z,100956.88
2022-10-05T19:48:22.682Z,100956.09
2022-10-05T19:51:30.534Z,100944.47
2022-10-05T19:54:17.415Z,100973.94
2022-10-05T19:57:00.103Z,100977.47
2022-10-05T19:59:46.048Z,100979.59
2022-10-05T20:02:28.043Z,100984.72
2022-10-05T20:05:13.869Z,100973.16
2022-10-05T20:07:53.207Z,100984.53
2022-10-05T20:10:35.076Z,100995.53
2022-10-05T20:13:35.834Z,101002.50
2022-10-05T20:16:40.000Z,100990.38
2022-10-05T20:19:49.950Z,101009.16
2022-10-05T20:22:34.222Z,101002.13
2022-10-05T20:25:31.898Z,101010.00
2022-10-05T20:28:11.939Z,101016.47
2022-10-05T20:30:52.464Z,101025.34
2022-10-05T20:33:34.326Z,101024.19
2022-10-05T20:36:16.555Z,101020.94
2022-10-05T20:39:00.028Z,101016.41
2022-10-05T20:41:40.689Z,101026.94
2022-10-05T20:44:57.008Z,101026.59
2022-10-05T20:47:38.212Z,101032.97
2022-10-05T20:50:39.487Z,101031.28
2022-10-05T20:53:19.568Z,101042.88
2022-10-05T20:56:04.381Z,101033.78
2022-10-05T20:58:44.308Z,101024.81
2022-10-05T21:01:26.664Z,101039.25
2022-10-05T21:04:06.857Z,101033.41
2022-10-05T21:06:48.129Z,101043.09
2022-10-05T21:09:42.228Z,101041.16
2022-10-05T21:12:42.052Z,101036.53
2022-10-05T21:15:23.272Z,101032.56
2022-10-05T21:18:04.241Z,101033.06
2022-10-05T21:21:01.985Z,101034.28
2022-10-05T21:23:42.619Z,101033.44
2022-10-05T21:26:23.484Z,101025.84
2022-10-05T21:29:07.811Z,101030.09
2022-10-05T21:31:50.135Z,101037.06
2022-10-05T21:35:11.085Z,101030.72
2022-10-05T21:37:50.526Z,101045.97
2022-10-05T21:40:29.956Z,101048.47
2022-10-05T21:43:10.912Z,101057.81
2022-10-05T21:45:51.230Z,101048.75
2022-10-05T21:48:31.964Z,101060.94
2022-10-05T21:51:35.200Z,101066.41
2022-10-05T21:54:19.279Z,101069.09
2022-10-05T21:57:00.955Z,101064.41
2022-10-05T21:59:41.281Z,101069.41
2022-10-05T22:02:22.088Z,101076.44
2022-10-05T22:05:04.035Z,101083.66
2022-10-05T22:07:46.887Z,101079.78
2022-10-05T22:10:28.955Z,101087.09
2022-10-05T22:13:09.609Z,101086.44
2022-10-05T22:15:49.028Z,101086.25
2022-10-05T22:18:29.256Z,101089.44
2022-10-05T22:21:12.332Z,101096.31
2022-10-05T22:23:53.657Z,101095.09
2022-10-05T22:26:34.701Z,101090.75
2022-10-05T22:29:16.167Z,101095.75
2022-10-05T22:32:16.698Z,101096.78
2022-10-05T22:34:56.529Z,101100.47
2022-10-05T22:37:37.927Z,101102.50
2022-10-05T22:40:18.611Z,101096.13
2022-10-05T22:42:59.251Z,101102.31
2022-10-05T22:46:00.955Z,101097.28
2022-10-05T22:48:41.414Z,101102.84
2022-10-05T22:51:21.972Z,101099.84
2022-10-05T22:54:04.582Z,101106.22
2022-10-05T22:56:47.409Z,101110.78
2022-10-05T22:59:26.806Z,101111.69
2022-10-05T23:02:05.453Z,101106.31
2022-10-05T23:04:46.557Z,101104.81
2022-10-05T23:07:47.543Z,101111.06
2022-10-05T23:10:27.117Z,101105.91
2022-10-05T23:13:07.312Z,101100.34
2022-10-05T23:15:48.993Z,101112.47
2022-10-05T23:18:29.816Z,101113.59
2022-10-05T23:21:11.000Z,101106.00
2022-10-05T23:23:52.694Z,101116.72
2022-10-05T23:26:33.366Z,101115.06
2022-10-05T23:29:13.413Z,101125.63
2022-10-05T23:31:53.005Z,101135.81
2022-10-05T23:34:33.131Z,101137.50
2022-10-05T23:37:17.638Z,101142.03
2022-10-05T23:39:57.467Z,101140.81
2022-10-05T23:42:37.381Z,101145.53
2022-10-05T23:45:17.188Z,101153.59
2022-10-05T23:47:56.927Z,101157.09
2022-10-05T23:50:36.852Z,101167.28
2022-10-05T23:53:17.288Z,101168.84
2022-10-05T23:55:57.124Z,101176.34
2022-10-05T23:58:58.931Z,101181.34
